Sao Pedro da Aldeia, Brazil
Current Conditions -  °F | °C
As of 7:00 PM on Saturday 22 Nov 2014 (Local Time) from SBES Reporting Station
Scattered Clouds Scattered Clouds  
Wind Chill: 79°   Ceiling: Unl
Heat Index: 81°   Visibility: 6mi
Dew Point: 70°   Wind: 18mph
Humidity: 74%   Direction: 70°ENE
Pressure: 29.8"   Gusts: NA
Location:  22.83°S, 42.11°W
Report Text: SBES 222100Z 07016KT 9999 FEW035 SCT070 26/21 Q1009
Loading
Personal Weather Stations






























Interactive Weather Map New forecast layout! Learn more

10-Day Weather Forecast

Advertisements
Track Severe Weather on mobile